createdAt,value
2016-04-02T00:00:41.079Z,0
2016-04-02T00:01:41.083Z,0
2016-04-02T00:02:41.085Z,0
2016-04-02T00:03:41.088Z,0
2016-04-02T00:04:41.107Z,0
2016-04-02T00:05:41.140Z,0
2016-04-02T00:06:41.112Z,0
2016-04-02T00:07:41.130Z,0
2016-04-02T00:08:41.132Z,0
2016-04-02T00:09:41.135Z,0
2016-04-02T00:10:41.169Z,0
2016-04-02T00:11:41.173Z,0
2016-04-02T00:12:41.175Z,0
2016-04-02T00:13:41.193Z,0
2016-04-02T00:14:41.181Z,0
2016-04-02T00:15:41.183Z,0
2016-04-02T00:16:41.186Z,0
2016-04-02T00:17:41.204Z,0
2016-04-02T00:18:41.191Z,0
2016-04-02T00:19:41.240Z,0
2016-04-02T00:20:41.227Z,0
2016-04-02T00:21:40.481Z,0
2016-04-02T00:22:41.233Z,0
2016-04-02T00:23:41.236Z,0
2016-04-02T00:24:41.223Z,0
2016-04-02T00:25:41.241Z,0
2016-04-02T00:26:41.291Z,0
2016-04-02T00:27:41.262Z,0
2016-04-02T00:28:41.281Z,0
2016-04-02T00:29:41.283Z,0
2016-04-02T00:30:41.269Z,0
2016-04-02T00:31:41.288Z,0
2016-04-02T00:32:41.275Z,0
2016-04-02T00:33:41.293Z,0
2016-04-02T00:34:41.327Z,0
2016-04-02T00:35:41.320Z,0
2016-04-02T00:36:41.323Z,0
2016-04-02T00:37:41.325Z,0
2016-04-02T00:38:41.312Z,0
2016-04-02T00:39:41.331Z,0
2016-04-02T00:40:41.208Z,0
2016-04-02T00:41:41.352Z,0
2016-04-02T00:42:41.385Z,0
2016-04-02T00:43:41.356Z,0
2016-04-02T00:44:41.376Z,0
2016-04-02T00:45:41.393Z,0
2016-04-02T00:46:41.381Z,0
2016-04-02T00:47:41.430Z,0
2016-04-02T00:48:41.433Z,0
2016-04-02T00:49:41.420Z,0
2016-04-02T00:50:41.438Z,0
2016-04-02T00:51:41.425Z,0
2016-04-02T00:52:41.412Z,0
2016-04-02T00:53:41.414Z,0
2016-04-02T00:54:41.417Z,0
2016-04-02T00:55:41.436Z,0
2016-04-02T00:56:41.454Z,0
2016-04-02T00:57:41.472Z,0
2016-04-02T00:58:41.459Z,0
2016-04-02T00:59:41.478Z,0
2016-04-02T01:00:41.449Z,0
2016-04-02T01:01:41.468Z,0
2016-04-02T01:02:41.471Z,0
2016-04-02T01:03:41.473Z,0
2016-04-02T01:04:41.507Z,0
2016-04-02T01:05:41.494Z,0
2016-04-02T01:06:41.513Z,0
2016-04-02T01:07:41.499Z,0
2016-04-02T01:08:41.579Z,0
2016-04-02T01:09:41.521Z,0
2016-04-02T01:10:41.555Z,0
2016-04-02T01:11:41.526Z,0
2016-04-02T01:12:41.576Z,0
2016-04-02T01:13:41.531Z,0
2016-04-02T01:14:41.581Z,0
2016-04-02T01:15:41.552Z,0
2016-04-02T01:16:41.602Z,0
2016-04-02T01:17:41.589Z,0
2016-04-02T01:18:41.606Z,0
2016-04-02T01:19:41.594Z,0
2016-04-02T01:20:41.597Z,0
2016-04-02T01:21:41.615Z,0
2016-04-02T01:22:41.618Z,0
2016-04-02T01:23:41.621Z,0
2016-04-02T01:24:41.623Z,0
2016-04-02T01:25:41.657Z,0
2016-04-02T01:26:41.628Z,0
2016-04-02T01:27:41.694Z,0
2016-04-02T01:28:41.650Z,0
2016-04-02T01:29:41.684Z,0
2016-04-02T01:30:41.655Z,0
2016-04-02T01:31:41.705Z,0
2016-04-02T01:32:41.661Z,0
2016-04-02T01:33:41.679Z,0
2016-04-02T01:34:41.697Z,0
2016-04-02T01:35:41.700Z,0
2016-04-02T01:36:41.702Z,0
2016-04-02T01:37:41.721Z,0
2016-04-02T01:38:41.771Z,0
2016-04-02T01:39:41.710Z,0
2016-04-02T01:40:41.745Z,0
2016-04-02T01:41:41.716Z,0
2016-04-02T01:42:41.734Z,0
2016-04-02T01:43:41.753Z,0
2016-04-02T01:44:41.740Z,0
2016-04-02T01:45:41.789Z,0
2016-04-02T01:46:41.761Z,0
2016-04-02T01:47:41.826Z,0
2016-04-02T01:48:41.766Z,0
2016-04-02T01:49:41.784Z,0
2016-04-02T01:50:41.755Z,0
2016-04-02T01:51:41.805Z,0
2016-04-02T01:52:41.792Z,0
2016-04-02T01:53:41.842Z,0
2016-04-02T01:54:41.797Z,0
2016-04-02T01:55:41.847Z,0
2016-04-02T01:56:41.812Z,0
2016-04-02T01:57:41.803Z,0
2016-04-02T01:58:41.825Z,0
2016-04-02T01:59:41.816Z,0
2016-04-02T02:00:41.854Z,0
2016-04-02T02:01:41.803Z,0
2016-04-02T02:02:41.801Z,0
2016-04-02T02:03:41.831Z,0
2016-04-02T02:04:41.814Z,0
2016-04-02T02:05:41.813Z,0
2016-04-02T02:06:41.813Z,0
2016-04-02T02:07:41.642Z,0
2016-04-02T02:08:41.840Z,0
2016-04-02T02:09:41.825Z,0
2016-04-02T02:10:41.826Z,0
2016-04-02T02:11:41.844Z,0
2016-04-02T02:12:41.831Z,0
2016-04-02T02:13:41.880Z,0
2016-04-02T02:14:41.843Z,0
2016-04-02T02:15:41.878Z,0
2016-04-02T02:16:41.881Z,0
2016-04-02T02:17:41.851Z,0
2016-04-02T02:18:41.885Z,0
2016-04-02T02:19:41.887Z,0
2016-04-02T02:20:41.889Z,0
2016-04-02T02:21:41.907Z,0
2016-04-02T02:22:41.878Z,0
2016-04-02T02:23:41.912Z,0
2016-04-02T02:24:41.900Z,0
2016-04-02T02:25:41.948Z,0
2016-04-02T02:26:41.920Z,0
2016-04-02T02:27:41.955Z,0
2016-04-02T02:28:41.942Z,0
2016-04-02T02:29:41.976Z,0
2016-04-02T02:30:41.947Z,0
2016-04-02T02:31:41.981Z,0
2016-04-02T02:32:41.984Z,0
2016-04-02T02:33:41.971Z,0
2016-04-02T02:34:41.974Z,0
2016-04-02T02:35:41.961Z,0
2016-04-02T02:36:42.026Z,0
2016-04-02T02:37:41.982Z,0
2016-04-02T02:38:42.031Z,0
2016-04-02T02:39:41.987Z,0
2016-04-02T02:40:42.021Z,0
2016-04-02T02:41:41.993Z,0
2016-04-02T02:42:42.058Z,0
2016-04-02T02:43:42.030Z,0
2016-04-02T02:44:42.033Z,0
2016-04-02T02:45:42.050Z,0
2016-04-02T02:46:42.053Z,0
2016-04-02T02:47:42.056Z,0
2016-04-02T02:48:42.058Z,0
2016-04-02T02:49:42.077Z,0
2016-04-02T02:50:42.079Z,0
2016-04-02T02:51:42.098Z,0
2016-04-02T02:52:42.085Z,0
2016-04-02T02:53:42.118Z,0
2016-04-02T02:54:42.106Z,0
2016-04-02T02:55:42.140Z,0
2016-04-02T02:56:42.112Z,0
2016-04-02T02:57:42.146Z,0
2016-04-02T02:58:42.132Z,0
2016-04-02T02:59:42.151Z,0
2016-04-02T03:00:42.122Z,0
2016-04-02T03:01:42.125Z,0
2016-04-02T03:02:42.159Z,0
2016-04-02T03:03:42.145Z,0
2016-04-02T03:04:42.180Z,0
2016-04-02T03:05:42.182Z,0
2016-04-02T03:06:42.217Z,0
2016-04-02T03:07:42.188Z,0
2016-04-02T03:08:42.223Z,0
2016-04-02T03:09:42.193Z,0
2016-04-02T03:10:42.228Z,0
2016-04-02T03:11:42.198Z,0
2016-04-02T03:12:42.217Z,0
2016-04-02T03:13:42.220Z,0
2016-04-02T03:14:42.222Z,0
2016-04-02T03:15:42.241Z,0
2016-04-02T03:16:42.243Z,0
2016-04-02T03:17:42.261Z,0
2016-04-02T03:18:42.249Z,0
2016-04-02T03:19:42.252Z,0
2016-04-02T03:20:42.270Z,0
2016-04-02T03:21:42.288Z,0
2016-04-02T03:22:42.275Z,0
2016-04-02T03:23:42.277Z,0
2016-04-02T03:24:42.280Z,0
2016-04-02T03:25:42.299Z,0
2016-04-02T03:26:42.301Z,0
2016-04-02T03:27:42.320Z,0
2016-04-02T03:28:42.323Z,0
2016-04-02T03:29:42.310Z,0
2016-04-02T03:30:42.344Z,0
2016-04-02T03:31:42.346Z,0
2016-04-02T03:32:42.349Z,0
2016-04-02T03:33:42.351Z,0
2016-04-02T03:34:42.354Z,0
2016-04-02T03:35:42.357Z,0
2016-04-02T03:36:42.391Z,0
2016-04-02T03:37:42.362Z,0
2016-04-02T03:38:42.381Z,0
2016-04-02T03:39:42.383Z,0
2016-04-02T03:40:42.401Z,0
2016-04-02T03:41:42.389Z,0
2016-04-02T03:42:42.407Z,0
2016-04-02T03:43:42.410Z,0
2016-04-02T03:44:42.397Z,0
2016-04-02T03:45:42.431Z,0
2016-04-02T03:46:42.418Z,0
2016-04-02T03:47:42.436Z,0
2016-04-02T03:48:42.455Z,0
2016-04-02T03:49:42.441Z,0
2016-04-02T03:50:42.444Z,0
2016-04-02T03:51:42.477Z,0
2016-04-02T03:52:42.480Z,0
2016-04-02T03:53:42.468Z,0
2016-04-02T03:54:42.501Z,0
2016-04-02T03:55:42.488Z,0
2016-04-02T03:56:42.491Z,0
2016-04-02T03:57:42.494Z,0
2016-04-02T03:58:42.513Z,0
2016-04-02T03:59:42.531Z,0
2016-04-02T04:00:42.502Z,0
2016-04-02T04:01:42.520Z,0
2016-04-02T04:02:42.539Z,0
2016-04-02T04:03:42.542Z,0
2016-04-02T04:04:42.529Z,0
2016-04-02T04:05:42.548Z,0
2016-04-02T04:06:42.566Z,0
2016-04-02T04:07:42.537Z,0
2016-04-02T04:08:42.556Z,0
2016-04-02T04:09:42.559Z,0
2016-04-02T04:10:42.592Z,0
2016-04-02T04:11:42.610Z,0
2016-04-02T04:12:42.581Z,0
2016-04-02T04:13:42.584Z,0
2016-04-02T04:14:42.618Z,0
2016-04-02T04:15:42.589Z,0
2016-04-02T04:16:42.608Z,0
2016-04-02T04:17:42.641Z,0
2016-04-02T04:18:42.613Z,0
2016-04-02T04:19:42.631Z,0
2016-04-02T04:20:42.650Z,0
2016-04-02T04:21:42.669Z,0
2016-04-02T04:22:42.655Z,0
2016-04-02T04:23:42.658Z,0
2016-04-02T04:24:42.661Z,0
2016-04-02T04:25:42.663Z,0
2016-04-02T04:26:42.682Z,0
2016-04-02T04:27:42.684Z,0
2016-04-02T04:28:42.718Z,0
2016-04-02T04:29:42.720Z,0
2016-04-02T04:30:42.692Z,0
2016-04-02T04:31:42.757Z,0
2016-04-02T04:32:42.698Z,0
2016-04-02T04:33:42.715Z,0
2016-04-02T04:34:42.735Z,0
2016-04-02T04:35:42.737Z,0
2016-04-02T04:36:42.771Z,0
2016-04-02T04:37:42.743Z,0
2016-04-02T04:38:42.761Z,0
2016-04-02T04:39:42.764Z,0
2016-04-02T04:40:42.797Z,0
2016-04-02T04:41:42.784Z,0
2016-04-02T04:42:42.787Z,0
2016-04-02T04:43:42.790Z,0
2016-04-02T04:44:42.793Z,0
2016-04-02T04:45:42.811Z,0
2016-04-02T04:46:42.798Z,0
2016-04-02T04:47:42.832Z,0
2016-04-02T04:48:42.803Z,0
2016-04-02T04:49:42.806Z,0
2016-04-02T04:50:42.808Z,0
2016-04-02T04:51:42.842Z,0
2016-04-02T04:52:42.830Z,0
2016-04-02T04:53:42.863Z,0
2016-04-02T04:54:42.850Z,0
2016-04-02T04:55:42.853Z,0
2016-04-02T04:56:42.855Z,0
2016-04-02T04:57:42.875Z,0
2016-04-02T04:58:42.893Z,0
2016-04-02T04:59:42.880Z,0
2016-04-02T05:00:42.899Z,0
2016-04-02T05:01:42.901Z,0
2016-04-02T05:02:42.904Z,0
2016-04-02T05:03:42.937Z,0
2016-04-02T05:04:42.909Z,0
2016-04-02T05:05:42.927Z,0
2016-04-02T05:06:42.914Z,0
2016-04-02T05:07:42.948Z,0
2016-04-02T05:08:42.934Z,0
2016-04-02T05:09:42.953Z,0
2016-04-02T05:10:42.956Z,0
2016-04-02T05:11:42.958Z,0
2016-04-02T05:12:42.962Z,0
2016-04-02T05:13:42.995Z,0
2016-04-02T05:14:42.967Z,0
2016-04-02T05:15:42.986Z,0
2016-04-02T05:16:43.003Z,0
2016-04-02T05:17:43.006Z,0
2016-04-02T05:18:43.008Z,0
2016-04-02T05:19:42.996Z,0
2016-04-02T05:20:43.014Z,0
2016-04-02T05:21:43.048Z,0
2016-04-02T05:22:43.020Z,0
2016-04-02T05:23:43.039Z,0
2016-04-02T05:24:43.056Z,0
2016-04-02T05:25:43.044Z,0
2016-04-02T05:26:43.046Z,0
2016-04-02T05:27:43.064Z,0
2016-04-02T05:28:43.052Z,0
2016-04-02T05:29:43.069Z,0
2016-04-02T05:30:43.072Z,0
2016-04-02T05:31:42.918Z,0
2016-04-02T05:32:43.093Z,0
2016-04-02T05:33:43.127Z,0
2016-04-02T05:34:43.098Z,0
2016-04-02T05:35:43.101Z,0
2016-04-02T05:36:43.135Z,0
2016-04-02T05:37:43.138Z,0
2016-04-02T05:38:43.126Z,0
2016-04-02T05:39:43.143Z,0
2016-04-02T05:40:43.131Z,0
2016-04-02T05:41:43.164Z,0
2016-04-02T05:42:43.167Z,0
2016-04-02T05:43:43.154Z,0
2016-04-02T05:44:43.156Z,0
2016-04-02T05:45:43.175Z,0
2016-04-02T05:46:43.193Z,0
2016-04-02T05:47:43.180Z,0
2016-04-02T05:48:43.214Z,0
2016-04-02T05:49:43.202Z,0
2016-04-02T05:50:43.205Z,0
2016-04-02T05:51:43.208Z,0
2016-04-02T05:52:43.210Z,0
2016-04-02T05:53:43.213Z,0
2016-04-02T05:54:43.247Z,0
2016-04-02T05:55:43.218Z,0
2016-04-02T05:56:43.252Z,0
2016-04-02T05:57:43.254Z,0
2016-04-02T05:58:43.241Z,0
2016-04-02T05:59:43.260Z,0
2016-04-02T06:00:43.263Z,0
2016-04-02T06:01:43.250Z,0
2016-04-02T06:02:43.252Z,0
2016-04-02T06:03:43.271Z,0
2016-04-02T06:04:43.274Z,0
2016-04-02T06:05:43.291Z,0
2016-04-02T06:06:43.326Z,0
2016-04-02T06:07:43.312Z,0
2016-04-02T06:08:43.331Z,0
2016-04-02T06:09:43.302Z,0
2016-04-02T06:10:43.351Z,0
2016-04-02T06:11:43.339Z,0
2016-04-02T06:12:43.372Z,0
2016-04-02T06:13:43.344Z,0
2016-04-02T06:14:43.394Z,0
2016-04-02T06:15:43.365Z,0
2016-04-02T06:16:43.368Z,0
2016-04-02T06:17:43.387Z,0
2016-04-02T06:18:43.373Z,0
2016-04-02T06:19:43.392Z,0
2016-04-02T06:20:43.378Z,0
2016-04-02T06:21:43.413Z,0
2016-04-02T06:22:43.384Z,0
2016-04-02T06:23:43.418Z,0
2016-04-02T06:24:43.421Z,0
2016-04-02T06:25:43.438Z,5
2016-04-02T06:26:43.426Z,5
2016-04-02T06:27:43.460Z,5
2016-04-02T06:28:43.446Z,5
2016-04-02T06:29:43.465Z,5
2016-04-02T06:30:43.437Z,5
2016-04-02T06:31:43.470Z,5
2016-04-02T06:32:43.443Z,5
2016-04-02T06:33:43.507Z,5
2016-04-02T06:34:43.463Z,5
2016-04-02T06:35:43.481Z,5
2016-04-02T06:36:43.499Z,5
2016-04-02T06:37:43.487Z,5
2016-04-02T06:38:43.490Z,5
2016-04-02T06:39:43.508Z,5
2016-04-02T06:40:43.511Z,5
2016-04-02T06:41:43.513Z,5
2016-04-02T06:42:43.532Z,5
2016-04-02T06:43:43.519Z,5
2016-04-02T06:44:43.553Z,5
2016-04-02T06:45:43.540Z,5
2016-04-02T06:46:43.558Z,5
2016-04-02T06:47:43.545Z,5
2016-04-02T06:48:43.564Z,5
2016-04-02T06:49:43.566Z,5
2016-04-02T06:50:43.584Z,5
2016-04-02T06:51:43.602Z,5
2016-04-02T06:52:43.605Z,5
2016-04-02T06:53:43.577Z,5
2016-04-02T06:54:43.627Z,5
2016-04-02T06:55:43.614Z,5
2016-04-02T06:56:43.600Z,5
2016-04-02T06:57:43.619Z,5
2016-04-02T06:58:43.621Z,5
2016-04-02T06:59:43.640Z,5
2016-04-02T07:00:43.627Z,5
2016-04-02T07:01:43.504Z,5
2016-04-02T07:02:43.632Z,5
2016-04-02T07:03:43.650Z,10
2016-04-02T07:04:43.637Z,10
2016-04-02T07:05:43.656Z,10
2016-04-02T07:06:43.659Z,10
2016-04-02T07:07:43.676Z,10
2016-04-02T07:08:43.680Z,10
2016-04-02T07:09:43.682Z,10
2016-04-02T07:10:43.685Z,10
2016-04-02T07:11:43.719Z,10
2016-04-02T07:12:43.706Z,10
2016-04-02T07:13:43.709Z,10
2016-04-02T07:14:43.727Z,10
2016-04-02T07:15:43.714Z,10
2016-04-02T07:16:43.732Z,10
2016-04-02T07:17:43.751Z,10
2016-04-02T07:18:43.737Z,10
2016-04-02T07:19:43.740Z,10
2016-04-02T07:20:43.790Z,10
2016-04-02T07:21:43.761Z,10
2016-04-02T07:22:43.764Z,10
2016-04-02T07:23:43.767Z,10
2016-04-02T07:24:43.785Z,10
2016-04-02T07:25:43.772Z,10
2016-04-02T07:26:43.790Z,10
2016-04-02T07:27:43.808Z,10
2016-04-02T07:28:43.780Z,10
2016-04-02T07:29:43.830Z,10
2016-04-02T07:30:43.817Z,10
2016-04-02T07:31:43.835Z,10
2016-04-02T07:32:43.854Z,10
2016-04-02T07:33:43.824Z,10
2016-04-02T07:34:43.827Z,10
2016-04-02T07:35:43.830Z,15
2016-04-02T07:36:43.865Z,10
2016-04-02T07:37:43.867Z,10
2016-04-02T07:38:43.854Z,10
2016-04-02T07:39:43.887Z,10
2016-04-02T07:40:43.875Z,10
2016-04-02T07:41:43.878Z,10
2016-04-02T07:42:43.912Z,10
2016-04-02T07:43:43.899Z,10
2016-04-02T07:44:43.901Z,10
2016-04-02T07:45:43.920Z,10
2016-04-02T07:46:43.922Z,10
2016-04-02T07:47:43.909Z,10
2016-04-02T07:48:43.928Z,10
2016-04-02T07:49:43.930Z,10
2016-04-02T07:50:43.949Z,10
2016-04-02T07:51:43.951Z,10
2016-04-02T07:52:43.954Z,10
2016-04-02T07:53:43.957Z,10
2016-04-02T07:54:43.975Z,10
2016-04-02T07:55:43.962Z,10
2016-04-02T07:56:43.980Z,10
2016-04-02T07:57:43.999Z,15
2016-04-02T07:58:43.985Z,15
2016-04-02T07:59:43.988Z,10
2016-04-02T08:00:43.991Z,10
2016-04-02T08:01:44.010Z,10
2016-04-02T08:02:44.028Z,15
2016-04-02T08:03:44.031Z,15
2016-04-02T08:04:44.033Z,15
2016-04-02T08:05:44.036Z,15
2016-04-02T08:06:44.038Z,15
2016-04-02T08:07:44.041Z,15
2016-04-02T08:08:44.075Z,15
2016-04-02T08:09:44.062Z,15
2016-04-02T08:10:44.065Z,15
2016-04-02T08:11:44.083Z,15
2016-04-02T08:12:44.070Z,15
2016-04-02T08:13:44.073Z,15
2016-04-02T08:14:44.092Z,15
2016-04-02T08:15:44.126Z,15
2016-04-02T08:16:44.097Z,15
2016-04-02T08:17:44.115Z,15
2016-04-02T08:18:44.117Z,15
2016-04-02T08:19:44.120Z,15
2016-04-02T08:20:44.139Z,15
2016-04-02T08:21:44.142Z,15
2016-04-02T08:22:44.145Z,15
2016-04-02T08:23:44.162Z,20
2016-04-02T08:24:44.150Z,20
2016-04-02T08:25:44.152Z,20
2016-04-02T08:26:44.170Z,15
2016-04-02T08:27:44.157Z,15
2016-04-02T08:28:44.191Z,15
2016-04-02T08:29:44.178Z,15
2016-04-02T08:30:44.228Z,20
2016-04-02T08:31:44.200Z,20
2016-04-02T08:32:44.233Z,20
2016-04-02T08:33:44.221Z,20
2016-04-02T08:34:44.223Z,20
2016-04-02T08:35:44.210Z,20
2016-04-02T08:36:44.228Z,25
2016-04-02T08:37:44.231Z,25
2016-04-02T08:38:44.249Z,25
2016-04-02T08:39:44.237Z,25
2016-04-02T08:40:44.270Z,25
2016-04-02T08:41:44.258Z,25
2016-04-02T08:42:44.292Z,25
2016-04-02T08:43:44.263Z,25
2016-04-02T08:44:44.297Z,30
2016-04-02T08:45:44.300Z,30
2016-04-02T08:46:44.287Z,30
2016-04-02T08:47:44.306Z,30
2016-04-02T08:48:44.292Z,30
2016-04-02T08:49:44.311Z,30
2016-04-02T08:50:44.344Z,30
2016-04-02T08:51:44.316Z,30
2016-04-02T08:52:44.350Z,35
2016-04-02T08:53:44.352Z,35
2016-04-02T08:54:44.355Z,35
2016-04-02T08:55:44.342Z,35
2016-04-02T08:56:44.345Z,35
2016-04-02T08:57:44.379Z,30
2016-04-02T08:58:44.366Z,30
2016-04-02T08:59:44.384Z,30
2016-04-02T09:00:44.355Z,30
2016-04-02T09:01:44.405Z,30
2016-04-02T09:02:44.391Z,30
2016-04-02T09:03:44.411Z,30
2016-04-02T09:04:44.413Z,30
2016-04-02T09:05:44.400Z,30
2016-04-02T09:06:44.418Z,30
2016-04-02T09:07:44.265Z,35
2016-04-02T09:08:44.423Z,35
2016-04-02T09:09:44.410Z,35
2016-04-02T09:10:44.429Z,30
2016-04-02T09:11:44.448Z,30
2016-04-02T09:12:44.466Z,35
2016-04-02T09:13:44.468Z,35
2016-04-02T09:14:44.471Z,35
2016-04-02T09:15:44.474Z,35
2016-04-02T09:16:44.509Z,40
2016-04-02T09:17:44.480Z,35
2016-04-02T09:18:44.482Z,35
2016-04-02T09:19:44.501Z,30
2016-04-02T09:20:44.503Z,30
2016-04-02T09:21:44.506Z,35
2016-04-02T09:22:44.524Z,35
2016-04-02T09:23:44.527Z,30
2016-04-02T09:24:44.530Z,30
2016-04-02T09:25:44.533Z,35
2016-04-02T09:26:44.536Z,40
2016-04-02T09:27:44.553Z,40
2016-04-02T09:28:44.556Z,35
2016-04-02T09:29:44.558Z,35
2016-04-02T09:30:44.592Z,35
2016-04-02T09:31:44.579Z,35
2016-04-02T09:32:44.582Z,30
2016-04-02T09:33:44.600Z,30
2016-04-02T09:34:44.619Z,35
2016-04-02T09:35:44.591Z,40
2016-04-02T09:36:44.624Z,45
2016-04-02T09:37:44.611Z,55
2016-04-02T09:38:44.613Z,60
2016-04-02T09:39:44.492Z,60
2016-04-02T09:40:44.635Z,55
2016-04-02T09:41:44.638Z,65
2016-04-02T09:42:44.656Z,65
2016-04-02T09:43:44.674Z,70
2016-04-02T09:44:44.662Z,65
2016-04-02T09:45:44.679Z,65
2016-04-02T09:46:44.682Z,80
2016-04-02T09:47:44.684Z,85
2016-04-02T09:48:44.673Z,75
2016-04-02T09:49:44.690Z,75
2016-04-02T09:50:44.693Z,75
2016-04-02T09:51:44.727Z,65
2016-04-02T09:52:44.714Z,75
2016-04-02T09:53:44.717Z,75
2016-04-02T09:54:44.750Z,75
2016-04-02T09:55:44.738Z,80
2016-04-02T09:56:44.741Z,85
2016-04-02T09:57:44.744Z,90
2016-04-02T09:58:44.762Z,85
2016-04-02T09:59:44.764Z,90
2016-04-02T10:00:44.783Z,90
2016-04-02T10:01:44.769Z,90
2016-04-02T10:02:44.788Z,85
2016-04-02T10:03:44.791Z,75
2016-04-02T10:04:44.794Z,75
2016-04-02T10:05:44.797Z,70
2016-04-02T10:06:44.658Z,75
2016-04-02T10:07:44.661Z,70
2016-04-02T10:08:44.663Z,75
2016-04-02T10:09:44.854Z,80
2016-04-02T10:10:44.840Z,75
2016-04-02T10:11:44.843Z,75
2016-04-02T10:12:44.862Z,80
2016-04-02T10:13:44.865Z,75
2016-04-02T10:14:44.883Z,75
2016-04-02T10:15:44.854Z,75
2016-04-02T10:16:44.904Z,80
2016-04-02T10:17:44.906Z,80
2016-04-02T10:18:44.878Z,75
2016-04-02T10:19:44.895Z,80
2016-04-02T10:20:44.898Z,75
2016-04-02T10:21:44.917Z,75
2016-04-02T10:22:44.920Z,70
2016-04-02T10:23:44.923Z,70
2016-04-02T10:24:44.941Z,65
2016-04-02T10:25:44.928Z,70
2016-04-02T10:26:44.946Z,65
2016-04-02T10:27:44.964Z,70
2016-04-02T10:28:44.967Z,80
2016-04-02T10:29:44.970Z,90
2016-04-02T10:30:44.958Z,95
2016-04-02T10:31:44.991Z,95
2016-04-02T10:32:44.978Z,90
2016-04-02T10:33:44.996Z,90
2016-04-02T10:34:45.014Z,85
2016-04-02T10:35:45.001Z,80
2016-04-02T10:36:45.019Z,80
2016-04-02T10:37:45.022Z,80
2016-04-02T10:38:45.010Z,80
2016-04-02T10:39:45.044Z,80
2016-04-02T10:40:45.030Z,85
2016-04-02T10:41:45.033Z,90
2016-04-02T10:42:45.052Z,95
2016-04-02T10:43:45.038Z,100
2016-04-02T10:44:45.073Z,100
2016-04-02T10:45:45.090Z,95
2016-04-02T10:46:45.078Z,80
2016-04-02T10:47:45.096Z,80
2016-04-02T10:48:45.099Z,70
2016-04-02T10:49:45.102Z,70
2016-04-02T10:50:45.120Z,65
2016-04-02T10:51:45.123Z,65
2016-04-02T10:52:45.109Z,65
2016-04-02T10:53:45.129Z,70
2016-04-02T10:54:45.147Z,70
2016-04-02T10:55:45.150Z,70
2016-04-02T10:56:45.153Z,80
2016-04-02T10:57:45.170Z,85
2016-04-02T10:58:45.220Z,90
2016-04-02T10:59:45.175Z,85
2016-04-02T11:00:45.209Z,85
2016-04-02T11:01:45.211Z,80
2016-04-02T11:02:45.189Z,75
2016-04-02T11:03:45.211Z,75
2016-04-02T11:04:45.172Z,75
2016-04-02T11:05:45.195Z,75
2016-04-02T11:06:45.186Z,75
2016-04-02T11:07:45.168Z,70
2016-04-02T11:08:45.183Z,70
2016-04-02T11:09:45.181Z,65
2016-04-02T11:10:45.210Z,65
2016-04-02T11:11:45.178Z,60
2016-04-02T11:12:45.226Z,60
2016-04-02T11:13:45.180Z,55
2016-04-02T11:14:45.197Z,55
2016-04-02T11:15:45.213Z,50
2016-04-02T11:16:45.199Z,50
2016-04-02T11:17:45.280Z,45
2016-04-02T11:18:45.220Z,45
2016-04-02T11:19:45.238Z,40
2016-04-02T11:20:45.224Z,40
2016-04-02T11:21:45.258Z,40
2016-04-02T11:22:45.245Z,35
2016-04-02T11:23:45.279Z,35
2016-04-02T11:24:45.267Z,35
2016-04-02T11:25:45.285Z,35
2016-04-02T11:26:45.287Z,30
2016-04-02T11:27:45.290Z,30
2016-04-02T11:28:45.308Z,30
2016-04-02T11:29:45.311Z,30
2016-04-02T11:30:45.345Z,30
2016-04-02T11:31:45.316Z,30
2016-04-02T11:32:45.350Z,30
2016-04-02T11:33:45.337Z,30
2016-04-02T11:34:45.356Z,30
2016-04-02T11:35:45.343Z,30
2016-04-02T11:36:45.361Z,30
2016-04-02T11:37:45.364Z,30
2016-04-02T11:38:45.366Z,30
2016-04-02T11:39:45.385Z,30
2016-04-02T11:40:45.387Z,30
2016-04-02T11:41:45.390Z,30
2016-04-02T11:42:45.408Z,30
2016-04-02T11:43:45.410Z,30
2016-04-02T11:44:45.430Z,30
2016-04-02T11:45:45.416Z,30
2016-04-02T11:46:45.419Z,30
2016-04-02T11:47:45.437Z,30
2016-04-02T11:48:45.440Z,30
2016-04-02T11:49:45.459Z,30
2016-04-02T11:50:45.446Z,35
2016-04-02T11:51:45.496Z,35
2016-04-02T11:52:45.482Z,35
2016-04-02T11:53:45.516Z,35
2016-04-02T11:54:45.487Z,40
2016-04-02T11:55:45.506Z,40
2016-04-02T11:56:45.523Z,40
2016-04-02T11:57:45.542Z,40
2016-04-02T11:58:45.529Z,40
2016-04-02T11:59:45.516Z,45
2016-04-02T12:00:45.535Z,45
2016-04-02T12:01:45.537Z,40
2016-04-02T12:02:45.572Z,40
2016-04-02T12:03:45.558Z,40
2016-04-02T12:04:45.561Z,45
2016-04-02T12:05:45.564Z,45
2016-04-02T12:06:45.660Z,45
2016-04-02T12:07:45.569Z,45
2016-04-02T12:08:45.634Z,50
2016-04-02T12:09:45.590Z,50
2016-04-02T12:10:45.593Z,50
2016-04-02T12:11:45.627Z,55
2016-04-02T12:12:45.630Z,55
2016-04-02T12:13:45.632Z,60
2016-04-02T12:14:45.651Z,60
2016-04-02T12:15:45.669Z,60
2016-04-02T12:16:45.656Z,65
2016-04-02T12:17:45.660Z,65
2016-04-02T12:18:45.677Z,70
2016-04-02T12:19:45.665Z,70
2016-04-02T12:20:45.682Z,70
2016-04-02T12:21:45.701Z,75
2016-04-02T12:22:45.688Z,75
2016-04-02T12:23:45.706Z,75
2016-04-02T12:24:45.709Z,75
2016-04-02T12:25:45.726Z,75
2016-04-02T12:26:45.746Z,75
2016-04-02T12:27:45.748Z,75
2016-04-02T12:28:45.720Z,80
2016-04-02T12:29:45.754Z,80
2016-04-02T12:30:45.740Z,85
2016-04-02T12:31:45.759Z,90
2016-04-02T12:32:45.777Z,90
2016-04-02T12:33:45.764Z,80
2016-04-02T12:34:45.782Z,80
2016-04-02T12:35:45.785Z,80
2016-04-02T12:36:45.819Z,75
2016-04-02T12:37:45.806Z,65
2016-04-02T12:38:45.825Z,60
2016-04-02T12:39:45.811Z,60
2016-04-02T12:40:45.830Z,65
2016-04-02T12:41:45.816Z,65
2016-04-02T12:42:45.852Z,60
2016-04-02T12:43:45.854Z,55
2016-04-02T12:44:45.857Z,50
2016-04-02T12:45:45.860Z,50
2016-04-02T12:46:45.893Z,50
2016-04-02T12:47:45.880Z,50
2016-04-02T12:48:45.883Z,50
2016-04-02T12:49:45.901Z,50
2016-04-02T12:50:45.904Z,50
2016-04-02T12:51:45.906Z,50
2016-04-02T12:52:45.925Z,50
2016-04-02T12:53:45.927Z,50
2016-04-02T12:54:45.946Z,50
2016-04-02T12:55:45.933Z,50
2016-04-02T12:56:45.951Z,45
2016-04-02T12:57:45.954Z,45
2016-04-02T12:58:45.972Z,45
2016-04-02T12:59:45.959Z,40
2016-04-02T13:00:46.008Z,40
2016-04-02T13:01:45.980Z,40
2016-04-02T13:02:45.998Z,35
2016-04-02T13:03:45.845Z,35
2016-04-02T13:04:46.004Z,35
2016-04-02T13:05:46.022Z,30
2016-04-02T13:06:46.025Z,30
2016-04-02T13:07:46.027Z,30
2016-04-02T13:08:46.030Z,30
2016-04-02T13:09:45.892Z,30
2016-04-02T13:10:46.052Z,30
2016-04-02T13:11:46.055Z,30
2016-04-02T13:12:46.072Z,35
2016-04-02T13:13:46.106Z,30
2016-04-02T13:14:46.077Z,30
2016-04-02T13:15:46.143Z,30
2016-04-02T13:16:46.098Z,35
2016-04-02T13:17:46.101Z,35
2016-04-02T13:18:46.119Z,35
2016-04-02T13:19:46.107Z,35
2016-04-02T13:20:46.157Z,35
2016-04-02T13:21:46.127Z,35
2016-04-02T13:22:46.146Z,35
2016-04-02T13:23:46.148Z,40
2016-04-02T13:24:46.151Z,40
2016-04-02T13:25:46.169Z,40
2016-04-02T13:26:46.172Z,40
2016-04-02T13:27:46.206Z,45
2016-04-02T13:28:46.193Z,45
2016-04-02T13:29:46.212Z,45
2016-04-02T13:30:46.199Z,50
2016-04-02T13:31:46.201Z,50
2016-04-02T13:32:46.220Z,55
2016-04-02T13:33:46.222Z,55
2016-04-02T13:34:46.225Z,55
2016-04-02T13:35:46.244Z,60
2016-04-02T13:36:46.231Z,60
2016-04-02T13:37:46.281Z,60
2016-04-02T13:38:46.267Z,60
2016-04-02T13:39:46.270Z,60
2016-04-02T13:40:46.272Z,60
2016-04-02T13:41:46.291Z,60
2016-04-02T13:42:46.293Z,60
2016-04-02T13:43:46.311Z,60
2016-04-02T13:44:46.314Z,60
2016-04-02T13:45:46.333Z,60
2016-04-02T13:46:46.320Z,60
2016-04-02T13:47:46.354Z,60
2016-04-02T13:48:46.341Z,60
2016-04-02T13:49:46.343Z,60
2016-04-02T13:50:46.346Z,60
2016-04-02T13:51:46.223Z,60
2016-04-02T13:52:46.382Z,60
2016-04-02T13:53:46.370Z,60
2016-04-02T13:54:46.388Z,60
2016-04-02T13:55:46.391Z,60
2016-04-02T13:56:46.409Z,60
2016-04-02T13:57:46.256Z,60
2016-04-02T13:58:46.430Z,60
2016-04-02T13:59:46.417Z,60
2016-04-02T14:00:46.436Z,60
2016-04-02T14:01:46.482Z,60
2016-04-02T14:02:46.280Z,60
2016-04-02T14:03:46.565Z,60
2016-04-02T14:04:46.391Z,60
2016-04-02T14:05:46.492Z,60
2016-04-02T14:06:46.462Z,55
2016-04-02T14:07:46.465Z,55
2016-04-02T14:08:46.499Z,55
2016-04-02T14:09:46.486Z,55
2016-04-02T14:10:46.505Z,50
2016-04-02T14:11:46.508Z,50
2016-04-02T14:12:46.526Z,50
2016-04-02T14:13:46.372Z,50
2016-04-02T14:14:46.375Z,45
2016-04-02T14:15:46.533Z,45
2016-04-02T14:16:46.536Z,45
2016-04-02T14:17:46.569Z,40
2016-04-02T14:18:46.557Z,40
2016-04-02T14:19:46.575Z,40
2016-04-02T14:20:46.578Z,40
2016-04-02T14:21:46.581Z,40
2016-04-02T14:22:46.583Z,35
2016-04-02T14:23:46.602Z,40
2016-04-02T14:24:46.588Z,40
2016-04-02T14:25:46.607Z,40
2016-04-02T14:26:46.625Z,40
2016-04-02T14:27:46.612Z,40
2016-04-02T14:28:46.646Z,40
2016-04-02T14:29:46.665Z,40
2016-04-02T14:30:46.652Z,40